sensor_id;sensor_type;location;lat;lon;timestamp;P1;durP1;ratioP1;P2;durP2;ratioP2
25023;SDS011;13033;50.936;5.334;2024-01-30T00:01:29;16.77;;;9.15;;
25023;SDS011;13033;50.936;5.334;2024-01-30T00:03:54;14.00;;;8.05;;
25023;SDS011;13033;50.936;5.334;2024-01-30T00:06:20;15.25;;;8.35;;
25023;SDS011;13033;50.936;5.334;2024-01-30T00:08:46;11.68;;;7.85;;
25023;SDS011;13033;50.936;5.334;2024-01-30T00:11:14;10.70;;;7.28;;
25023;SDS011;13033;50.936;5.334;2024-01-30T00:13:40;13.55;;;7.80;;
25023;SDS011;13033;50.936;5.334;2024-01-30T00:16:06;13.90;;;8.20;;
25023;SDS011;13033;50.936;5.334;2024-01-30T00:18:34;12.30;;;7.75;;
25023;SDS011;13033;50.936;5.334;2024-01-30T00:21:00;10.70;;;7.10;;
25023;SDS011;13033;50.936;5.334;2024-01-30T00:23:25;12.48;;;6.82;;
25023;SDS011;13033;50.936;5.334;2024-01-30T00:25:51;13.50;;;7.82;;
25023;SDS011;13033;50.936;5.334;2024-01-30T00:28:17;10.98;;;7.45;;
25023;SDS011;13033;50.936;5.334;2024-01-30T00:30:42;10.93;;;7.25;;
25023;SDS011;13033;50.936;5.334;2024-01-30T00:33:08;12.23;;;7.70;;
25023;SDS011;13033;50.936;5.334;2024-01-30T00:35:34;12.10;;;6.75;;
25023;SDS011;13033;50.936;5.334;2024-01-30T00:38:00;12.65;;;7.20;;
25023;SDS011;13033;50.936;5.334;2024-01-30T00:40:26;11.38;;;7.47;;
25023;SDS011;13033;50.936;5.334;2024-01-30T00:42:51;11.10;;;7.13;;
25023;SDS011;13033;50.936;5.334;2024-01-30T00:45:17;10.02;;;7.20;;
25023;SDS011;13033;50.936;5.334;2024-01-30T00:47:43;13.00;;;6.53;;
25023;SDS011;13033;50.936;5.334;2024-01-30T00:50:09;12.98;;;6.97;;
25023;SDS011;13033;50.936;5.334;2024-01-30T00:52:36;12.55;;;6.78;;
25023;SDS011;13033;50.936;5.334;2024-01-30T00:55:02;11.05;;;6.75;;
25023;SDS011;13033;50.936;5.334;2024-01-30T00:57:28;17.75;;;7.00;;
25023;SDS011;13033;50.936;5.334;2024-01-30T00:59:54;11.60;;;6.90;;
25023;SDS011;13033;50.936;5.334;2024-01-30T01:02:20;11.88;;;7.63;;
25023;SDS011;13033;50.936;5.334;2024-01-30T01:04:45;13.80;;;7.18;;
25023;SDS011;13033;50.936;5.334;2024-01-30T01:07:11;10.32;;;6.75;;
25023;SDS011;13033;50.936;5.334;2024-01-30T01:09:37;12.05;;;6.93;;
25023;SDS011;13033;50.936;5.334;2024-01-30T01:12:03;11.60;;;7.22;;
25023;SDS011;13033;50.936;5.334;2024-01-30T01:14:29;10.65;;;6.50;;
25023;SDS011;13033;50.936;5.334;2024-01-30T01:16:55;11.82;;;6.57;;
25023;SDS011;13033;50.936;5.334;2024-01-30T01:19:21;11.15;;;7.15;;
25023;SDS011;13033;50.936;5.334;2024-01-30T01:21:47;10.63;;;7.13;;
25023;SDS011;13033;50.936;5.334;2024-01-30T01:24:13;12.48;;;6.63;;
25023;SDS011;13033;50.936;5.334;2024-01-30T01:26:39;11.32;;;6.70;;
25023;SDS011;13033;50.936;5.334;2024-01-30T01:29:05;11.55;;;7.70;;
25023;SDS011;13033;50.936;5.334;2024-01-30T01:31:38;15.10;;;7.35;;
25023;SDS011;13033;50.936;5.334;2024-01-30T01:34:12;13.32;;;7.60;;
25023;SDS011;13033;50.936;5.334;2024-01-30T01:36:38;11.90;;;6.75;;
25023;SDS011;13033;50.936;5.334;2024-01-30T01:39:04;12.18;;;7.03;;
25023;SDS011;13033;50.936;5.334;2024-01-30T01:41:33;14.98;;;6.78;;
25023;SDS011;13033;50.936;5.334;2024-01-30T01:43:59;13.45;;;7.07;;
25023;SDS011;13033;50.936;5.334;2024-01-30T01:46:29;10.85;;;7.00;;
25023;SDS011;13033;50.936;5.334;2024-01-30T01:51:24;9.55;;;6.15;;
25023;SDS011;13033;50.936;5.334;2024-01-30T01:53:52;9.40;;;6.15;;
25023;SDS011;13033;50.936;5.334;2024-01-30T01:56:19;13.65;;;6.63;;
25023;SDS011;13033;50.936;5.334;2024-01-30T01:58:45;9.35;;;6.45;;
25023;SDS011;13033;50.936;5.334;2024-01-30T02:01:12;13.77;;;6.63;;
25023;SDS011;13033;50.936;5.334;2024-01-30T02:03:39;13.02;;;7.07;;
25023;SDS011;13033;50.936;5.334;2024-01-30T02:06:06;10.82;;;6.50;;
25023;SDS011;13033;50.936;5.334;2024-01-30T02:08:31;9.32;;;6.40;;
25023;SDS011;13033;50.936;5.334;2024-01-30T02:10:58;10.40;;;6.40;;
25023;SDS011;13033;50.936;5.334;2024-01-30T02:13:24;14.23;;;6.72;;
25023;SDS011;13033;50.936;5.334;2024-01-30T02:15:53;10.40;;;6.55;;
25023;SDS011;13033;50.936;5.334;2024-01-30T02:18:19;13.25;;;6.60;;
25023;SDS011;13033;50.936;5.334;2024-01-30T02:20:48;10.27;;;6.53;;
25023;SDS011;13033;50.936;5.334;2024-01-30T02:23:16;7.90;;;6.20;;
25023;SDS011;13033;50.936;5.334;2024-01-30T02:25:42;9.60;;;6.57;;
25023;SDS011;13033;50.936;5.334;2024-01-30T02:28:14;12.45;;;6.68;;
25023;SDS011;13033;50.936;5.334;2024-01-30T02:30:42;12.43;;;6.38;;
25023;SDS011;13033;50.936;5.334;2024-01-30T02:33:08;8.82;;;5.38;;
25023;SDS011;13033;50.936;5.334;2024-01-30T02:35:34;10.45;;;6.18;;
25023;SDS011;13033;50.936;5.334;2024-01-30T02:38:00;13.85;;;5.97;;
25023;SDS011;13033;50.936;5.334;2024-01-30T02:40:26;9.82;;;5.68;;
25023;SDS011;13033;50.936;5.334;2024-01-30T02:42:52;10.57;;;5.90;;
25023;SDS011;13033;50.936;5.334;2024-01-30T02:45:18;10.63;;;5.55;;
25023;SDS011;13033;50.936;5.334;2024-01-30T02:47:44;10.13;;;5.50;;
25023;SDS011;13033;50.936;5.334;2024-01-30T02:50:11;9.70;;;5.82;;
25023;SDS011;13033;50.936;5.334;2024-01-30T02:52:37;8.98;;;5.47;;
25023;SDS011;13033;50.936;5.334;2024-01-30T02:55:02;8.52;;;5.70;;
25023;SDS011;13033;50.936;5.334;2024-01-30T02:57:28;8.27;;;6.03;;
25023;SDS011;13033;50.936;5.334;2024-01-30T02:59:54;12.60;;;5.60;;
25023;SDS011;13033;50.936;5.334;2024-01-30T03:02:20;9.07;;;5.60;;
25023;SDS011;13033;50.936;5.334;2024-01-30T03:04:46;10.13;;;5.97;;
25023;SDS011;13033;50.936;5.334;2024-01-30T03:07:12;9.23;;;5.45;;
25023;SDS011;13033;50.936;5.334;2024-01-30T03:09:38;10.60;;;6.20;;
25023;SDS011;13033;50.936;5.334;2024-01-30T03:12:06;9.10;;;5.82;;
25023;SDS011;13033;50.936;5.334;2024-01-30T03:14:31;11.93;;;6.05;;
25023;SDS011;13033;50.936;5.334;2024-01-30T03:16:58;10.18;;;5.90;;
25023;SDS011;13033;50.936;5.334;2024-01-30T03:19:23;11.10;;;5.57;;
25023;SDS011;13033;50.936;5.334;2024-01-30T03:21:50;8.95;;;5.68;;
25023;SDS011;13033;50.936;5.334;2024-01-30T03:24:16;9.18;;;5.68;;
25023;SDS011;13033;50.936;5.334;2024-01-30T03:26:42;10.32;;;5.68;;
25023;SDS011;13033;50.936;5.334;2024-01-30T03:29:08;9.23;;;6.10;;
25023;SDS011;13033;50.936;5.334;2024-01-30T03:31:34;10.20;;;5.95;;
25023;SDS011;13033;50.936;5.334;2024-01-30T03:34:00;8.95;;;5.88;;
25023;SDS011;13033;50.936;5.334;2024-01-30T03:36:26;8.13;;;5.88;;
25023;SDS011;13033;50.936;5.334;2024-01-30T03:38:52;11.45;;;5.88;;
25023;SDS011;13033;50.936;5.334;2024-01-30T03:41:18;8.32;;;6.00;;
25023;SDS011;13033;50.936;5.334;2024-01-30T03:43:47;9.90;;;5.68;;
25023;SDS011;13033;50.936;5.334;2024-01-30T03:46:13;12.85;;;5.43;;
25023;SDS011;13033;50.936;5.334;2024-01-30T03:48:39;9.60;;;6.30;;
25023;SDS011;13033;50.936;5.334;2024-01-30T03:51:05;8.63;;;5.55;;
25023;SDS011;13033;50.936;5.334;2024-01-30T03:53:31;9.82;;;5.50;;
25023;SDS011;13033;50.936;5.334;2024-01-30T03:55:56;9.48;;;5.57;;
25023;SDS011;13033;50.936;5.334;2024-01-30T03:58:22;9.18;;;5.63;;
25023;SDS011;13033;50.936;5.334;2024-01-30T04:00:48;9.18;;;5.68;;
25023;SDS011;13033;50.936;5.334;2024-01-30T04:03:14;7.78;;;5.30;;
25023;SDS011;13033;50.936;5.334;2024-01-30T04:05:40;8.50;;;5.50;;
25023;SDS011;13033;50.936;5.334;2024-01-30T04:08:06;7.93;;;5.38;;
25023;SDS011;13033;50.936;5.334;2024-01-30T04:10:32;6.95;;;5.35;;
25023;SDS011;13033;50.936;5.334;2024-01-30T04:12:59;10.35;;;5.70;;
25023;SDS011;13033;50.936;5.334;2024-01-30T04:15:25;8.15;;;5.45;;
25023;SDS011;13033;50.936;5.334;2024-01-30T04:17:51;12.30;;;5.60;;
25023;SDS011;13033;50.936;5.334;2024-01-30T04:20:17;7.57;;;5.28;;
25023;SDS011;13033;50.936;5.334;2024-01-30T04:22:43;9.05;;;5.35;;
25023;SDS011;13033;50.936;5.334;2024-01-30T04:25:09;8.63;;;5.22;;
25023;SDS011;13033;50.936;5.334;2024-01-30T04:27:35;8.13;;;5.05;;
25023;SDS011;13033;50.936;5.334;2024-01-30T04:30:01;8.57;;;5.43;;
25023;SDS011;13033;50.936;5.334;2024-01-30T04:32:26;8.57;;;5.28;;
25023;SDS011;13033;50.936;5.334;2024-01-30T04:34:52;10.45;;;5.78;;
25023;SDS011;13033;50.936;5.334;2024-01-30T04:37:18;9.05;;;5.25;;
25023;SDS011;13033;50.936;5.334;2024-01-30T04:39:43;10.02;;;5.70;;
25023;SDS011;13033;50.936;5.334;2024-01-30T04:42:09;10.30;;;5.88;;
25023;SDS011;13033;50.936;5.334;2024-01-30T04:44:35;8.98;;;5.65;;
25023;SDS011;13033;50.936;5.334;2024-01-30T04:47:00;9.10;;;6.00;;
25023;SDS011;13033;50.936;5.334;2024-01-30T04:49:26;8.32;;;5.90;;
25023;SDS011;13033;50.936;5.334;2024-01-30T04:51:54;12.02;;;6.07;;
25023;SDS011;13033;50.936;5.334;2024-01-30T04:54:19;12.77;;;5.90;;
25023;SDS011;13033;50.936;5.334;2024-01-30T04:56:45;8.65;;;5.78;;
25023;SDS011;13033;50.936;5.334;2024-01-30T04:59:11;8.57;;;5.90;;
25023;SDS011;13033;50.936;5.334;2024-01-30T05:01:37;8.77;;;5.60;;
25023;SDS011;13033;50.936;5.334;2024-01-30T05:04:03;7.28;;;5.05;;
25023;SDS011;13033;50.936;5.334;2024-01-30T05:06:32;10.55;;;5.70;;
25023;SDS011;13033;50.936;5.334;2024-01-30T05:08:58;10.50;;;5.82;;
25023;SDS011;13033;50.936;5.334;2024-01-30T05:11:24;10.07;;;5.88;;
25023;SDS011;13033;50.936;5.334;2024-01-30T05:13:49;9.52;;;5.35;;
25023;SDS011;13033;50.936;5.334;2024-01-30T05:16:15;8.05;;;5.65;;
25023;SDS011;13033;50.936;5.334;2024-01-30T05:18:41;10.20;;;5.35;;
25023;SDS011;13033;50.936;5.334;2024-01-30T05:21:07;8.38;;;6.07;;
25023;SDS011;13033;50.936;5.334;2024-01-30T05:23:32;9.75;;;5.63;;
25023;SDS011;13033;50.936;5.334;2024-01-30T05:25:58;9.25;;;6.20;;
25023;SDS011;13033;50.936;5.334;2024-01-30T05:28:26;9.25;;;6.03;;
25023;SDS011;13033;50.936;5.334;2024-01-30T05:30:52;10.05;;;6.55;;
25023;SDS011;13033;50.936;5.334;2024-01-30T05:33:17;13.32;;;5.70;;
25023;SDS011;13033;50.936;5.334;2024-01-30T05:35:43;8.60;;;5.80;;
25023;SDS011;13033;50.936;5.334;2024-01-30T05:38:11;10.55;;;5.72;;
25023;SDS011;13033;50.936;5.334;2024-01-30T05:40:37;8.95;;;5.72;;
25023;SDS011;13033;50.936;5.334;2024-01-30T05:43:03;10.60;;;5.75;;
25023;SDS011;13033;50.936;5.334;2024-01-30T05:45:29;10.18;;;5.65;;
25023;SDS011;13033;50.936;5.334;2024-01-30T05:47:54;8.10;;;5.43;;
25023;SDS011;13033;50.936;5.334;2024-01-30T05:50:20;7.25;;;5.28;;
25023;SDS011;13033;50.936;5.334;2024-01-30T05:52:48;9.00;;;5.70;;
25023;SDS011;13033;50.936;5.334;2024-01-30T05:55:14;7.93;;;5.35;;
25023;SDS011;13033;50.936;5.334;2024-01-30T05:57:39;8.70;;;5.97;;
25023;SDS011;13033;50.936;5.334;2024-01-30T06:00:05;13.88;;;6.38;;
25023;SDS011;13033;50.936;5.334;2024-01-30T06:02:32;8.95;;;5.55;;
25023;SDS011;13033;50.936;5.334;2024-01-30T06:04:58;8.15;;;5.63;;
25023;SDS011;13033;50.936;5.334;2024-01-30T06:07:23;10.77;;;6.22;;
25023;SDS011;13033;50.936;5.334;2024-01-30T06:09:49;10.73;;;5.95;;
25023;SDS011;13033;50.936;5.334;2024-01-30T06:12:15;11.65;;;5.63;;
25023;SDS011;13033;50.936;5.334;2024-01-30T06:14:41;11.52;;;5.95;;
25023;SDS011;13033;50.936;5.334;2024-01-30T06:17:07;9.57;;;6.22;;
25023;SDS011;13033;50.936;5.334;2024-01-30T06:19:33;10.68;;;5.88;;
25023;SDS011;13033;50.936;5.334;2024-01-30T06:21:59;11.82;;;6.78;;
25023;SDS011;13033;50.936;5.334;2024-01-30T06:24:25;9.77;;;6.20;;
25023;SDS011;13033;50.936;5.334;2024-01-30T06:26:51;11.95;;;6.05;;
25023;SDS011;13033;50.936;5.334;2024-01-30T06:29:16;12.32;;;6.03;;
25023;SDS011;13033;50.936;5.334;2024-01-30T06:31:42;11.73;;;5.95;;
25023;SDS011;13033;50.936;5.334;2024-01-30T06:34:08;10.52;;;6.28;;
25023;SDS011;13033;50.936;5.334;2024-01-30T06:36:34;10.88;;;6.32;;
25023;SDS011;13033;50.936;5.334;2024-01-30T06:39:01;9.85;;;6.30;;
25023;SDS011;13033;50.936;5.334;2024-01-30T06:41:28;9.27;;;6.70;;
25023;SDS011;13033;50.936;5.334;2024-01-30T06:43:53;8.38;;;5.85;;
25023;SDS011;13033;50.936;5.334;2024-01-30T06:46:19;11.25;;;6.80;;
25023;SDS011;13033;50.936;5.334;2024-01-30T06:48:45;10.50;;;6.43;;
25023;SDS011;13033;50.936;5.334;2024-01-30T06:51:11;11.82;;;6.43;;
25023;SDS011;13033;50.936;5.334;2024-01-30T06:53:37;9.55;;;5.72;;
25023;SDS011;13033;50.936;5.334;2024-01-30T06:56:03;10.65;;;5.82;;
25023;SDS011;13033;50.936;5.334;2024-01-30T06:58:29;7.75;;;5.82;;
25023;SDS011;13033;50.936;5.334;2024-01-30T07:00:55;10.45;;;5.95;;
25023;SDS011;13033;50.936;5.334;2024-01-30T07:03:21;10.55;;;6.10;;
25023;SDS011;13033;50.936;5.334;2024-01-30T07:05:47;9.35;;;5.85;;
25023;SDS011;13033;50.936;5.334;2024-01-30T07:08:14;12.55;;;6.65;;
25023;SDS011;13033;50.936;5.334;2024-01-30T07:10:42;9.85;;;6.10;;
25023;SDS011;13033;50.936;5.334;2024-01-30T07:13:08;11.13;;;6.53;;
25023;SDS011;13033;50.936;5.334;2024-01-30T07:15:35;12.15;;;6.35;;
25023;SDS011;13033;50.936;5.334;2024-01-30T07:18:01;14.13;;;6.38;;
25023;SDS011;13033;50.936;5.334;2024-01-30T07:20:28;10.43;;;5.95;;
25023;SDS011;13033;50.936;5.334;2024-01-30T07:22:55;10.00;;;5.65;;
25023;SDS011;13033;50.936;5.334;2024-01-30T07:25:21;9.82;;;5.95;;
25023;SDS011;13033;50.936;5.334;2024-01-30T07:27:51;10.50;;;6.75;;
25023;SDS011;13033;50.936;5.334;2024-01-30T07:30:20;11.13;;;6.25;;
25023;SDS011;13033;50.936;5.334;2024-01-30T07:32:46;10.85;;;6.10;;
25023;SDS011;13033;50.936;5.334;2024-01-30T07:35:12;12.75;;;6.30;;
25023;SDS011;13033;50.936;5.334;2024-01-30T07:37:38;11.13;;;6.75;;
25023;SDS011;13033;50.936;5.334;2024-01-30T07:40:04;12.35;;;6.38;;
25023;SDS011;13033;50.936;5.334;2024-01-30T07:42:31;9.30;;;6.50;;
25023;SDS011;13033;50.936;5.334;2024-01-30T07:44:57;10.93;;;6.82;;
25023;SDS011;13033;50.936;5.334;2024-01-30T07:47:23;11.10;;;6.57;;
25023;SDS011;13033;50.936;5.334;2024-01-30T07:49:49;12.88;;;7.05;;
25023;SDS011;13033;50.936;5.334;2024-01-30T07:52:14;12.77;;;6.65;;
25023;SDS011;13033;50.936;5.334;2024-01-30T07:54:49;13.07;;;6.88;;
25023;SDS011;13033;50.936;5.334;2024-01-30T07:57:16;10.55;;;6.68;;
25023;SDS011;13033;50.936;5.334;2024-01-30T07:59:44;10.80;;;6.32;;
25023;SDS011;13033;50.936;5.334;2024-01-30T08:02:13;11.07;;;6.78;;
25023;SDS011;13033;50.936;5.334;2024-01-30T08:04:39;12.00;;;6.25;;
25023;SDS011;13033;50.936;5.334;2024-01-30T08:07:05;12.30;;;6.22;;
25023;SDS011;13033;50.936;5.334;2024-01-30T08:09:31;9.77;;;5.95;;
25023;SDS011;13033;50.936;5.334;2024-01-30T08:11:57;11.00;;;6.50;;
25023;SDS011;13033;50.936;5.334;2024-01-30T08:14:22;9.90;;;6.00;;
25023;SDS011;13033;50.936;5.334;2024-01-30T08:16:48;11.88;;;6.20;;
25023;SDS011;13033;50.936;5.334;2024-01-30T08:19:14;10.77;;;6.10;;
25023;SDS011;13033;50.936;5.334;2024-01-30T08:21:40;9.60;;;6.00;;
25023;SDS011;13033;50.936;5.334;2024-01-30T08:24:06;10.20;;;6.00;;
25023;SDS011;13033;50.936;5.334;2024-01-30T08:26:32;8.65;;;5.70;;
25023;SDS011;13033;50.936;5.334;2024-01-30T08:28:58;9.48;;;6.22;;
25023;SDS011;13033;50.936;5.334;2024-01-30T08:31:24;9.80;;;6.10;;
25023;SDS011;13033;50.936;5.334;2024-01-30T08:33:50;9.23;;;6.20;;
25023;SDS011;13033;50.936;5.334;2024-01-30T08:36:16;10.77;;;5.90;;
25023;SDS011;13033;50.936;5.334;2024-01-30T08:38:42;12.15;;;5.68;;
25023;SDS011;13033;50.936;5.334;2024-01-30T08:41:08;7.45;;;5.30;;
25023;SDS011;13033;50.936;5.334;2024-01-30T08:43:34;10.88;;;6.07;;
25023;SDS011;13033;50.936;5.334;2024-01-30T08:46:00;10.80;;;6.70;;
25023;SDS011;13033;50.936;5.334;2024-01-30T08:48:26;12.18;;;6.28;;
25023;SDS011;13033;50.936;5.334;2024-01-30T08:50:52;12.38;;;5.78;;
25023;SDS011;13033;50.936;5.334;2024-01-30T08:53:17;10.85;;;5.75;;
25023;SDS011;13033;50.936;5.334;2024-01-30T08:55:43;12.10;;;6.13;;
25023;SDS011;13033;50.936;5.334;2024-01-30T08:58:09;12.10;;;6.20;;
25023;SDS011;13033;50.936;5.334;2024-01-30T09:00:35;9.70;;;6.18;;
25023;SDS011;13033;50.936;5.334;2024-01-30T09:03:01;8.93;;;5.55;;
25023;SDS011;13033;50.936;5.334;2024-01-30T09:05:27;9.88;;;5.95;;
25023;SDS011;13033;50.936;5.334;2024-01-30T09:07:52;11.43;;;5.65;;
25023;SDS011;13033;50.936;5.334;2024-01-30T09:10:18;8.18;;;5.65;;
25023;SDS011;13033;50.936;5.334;2024-01-30T09:12:45;9.32;;;6.20;;
25023;SDS011;13033;50.936;5.334;2024-01-30T09:15:11;11.18;;;5.95;;
25023;SDS011;13033;50.936;5.334;2024-01-30T09:17:37;13.45;;;6.68;;
25023;SDS011;13033;50.936;5.334;2024-01-30T09:20:03;11.20;;;6.63;;
25023;SDS011;13033;50.936;5.334;2024-01-30T09:22:30;10.80;;;6.07;;
25023;SDS011;13033;50.936;5.334;2024-01-30T09:24:56;12.18;;;6.53;;
25023;SDS011;13033;50.936;5.334;2024-01-30T09:27:22;11.05;;;5.95;;
25023;SDS011;13033;50.936;5.334;2024-01-30T09:29:48;10.23;;;6.32;;
25023;SDS011;13033;50.936;5.334;2024-01-30T09:32:13;13.52;;;6.38;;
25023;SDS011;13033;50.936;5.334;2024-01-30T09:34:39;10.57;;;6.22;;
25023;SDS011;13033;50.936;5.334;2024-01-30T09:37:05;10.98;;;5.90;;
25023;SDS011;13033;50.936;5.334;2024-01-30T09:39:30;13.30;;;6.40;;
25023;SDS011;13033;50.936;5.334;2024-01-30T09:42:11;10.00;;;6.07;;
25023;SDS011;13033;50.936;5.334;2024-01-30T09:45:03;11.75;;;6.38;;
25023;SDS011;13033;50.936;5.334;2024-01-30T09:47:34;13.45;;;6.30;;
25023;SDS011;13033;50.936;5.334;2024-01-30T09:50:07;11.20;;;6.13;;
25023;SDS011;13033;50.936;5.334;2024-01-30T09:52:34;10.60;;;6.45;;
25023;SDS011;13033;50.936;5.334;2024-01-30T09:55:00;12.13;;;6.15;;
25023;SDS011;13033;50.936;5.334;2024-01-30T09:57:26;12.35;;;6.30;;
25023;SDS011;13033;50.936;5.334;2024-01-30T09:59:52;11.15;;;5.65;;
25023;SDS011;13033;50.936;5.334;2024-01-30T10:02:21;9.18;;;5.60;;
25023;SDS011;13033;50.936;5.334;2024-01-30T10:04:48;9.80;;;5.45;;
25023;SDS011;13033;50.936;5.334;2024-01-30T10:07:15;9.82;;;5.82;;
25023;SDS011;13033;50.936;5.334;2024-01-30T10:09:41;14.27;;;5.95;;
25023;SDS011;13033;50.936;5.334;2024-01-30T10:12:07;12.02;;;6.50;;
25023;SDS011;13033;50.936;5.334;2024-01-30T10:14:34;10.98;;;6.53;;
25023;SDS011;13033;50.936;5.334;2024-01-30T10:17:07;10.80;;;6.65;;
25023;SDS011;13033;50.936;5.334;2024-01-30T10:19:40;10.73;;;6.10;;
25023;SDS011;13033;50.936;5.334;2024-01-30T10:22:07;9.38;;;6.10;;
25023;SDS011;13033;50.936;5.334;2024-01-30T10:24:33;12.27;;;6.75;;
25023;SDS011;13033;50.936;5.334;2024-01-30T10:26:59;14.18;;;6.57;;
25023;SDS011;13033;50.936;5.334;2024-01-30T10:29:26;13.23;;;6.28;;
25023;SDS011;13033;50.936;5.334;2024-01-30T10:31:59;13.63;;;7.20;;
25023;SDS011;13033;50.936;5.334;2024-01-30T10:34:28;11.90;;;6.30;;
25023;SDS011;13033;50.936;5.334;2024-01-30T10:39:38;13.40;;;6.55;;
25023;SDS011;13033;50.936;5.334;2024-01-30T10:42:05;13.60;;;6.93;;
25023;SDS011;13033;50.936;5.334;2024-01-30T10:47:32;13.57;;;6.28;;
25023;SDS011;13033;50.936;5.334;2024-01-30T10:50:03;15.13;;;6.97;;
25023;SDS011;13033;50.936;5.334;2024-01-30T10:52:29;20.00;;;7.80;;
25023;SDS011;13033;50.936;5.334;2024-01-30T10:54:57;14.48;;;6.97;;
25023;SDS011;13033;50.936;5.334;2024-01-30T10:57:24;17.45;;;7.50;;
25023;SDS011;13033;50.936;5.334;2024-01-30T10:59:55;15.43;;;7.30;;
25023;SDS011;13033;50.936;5.334;2024-01-30T11:02:23;11.90;;;7.43;;
25023;SDS011;13033;50.936;5.334;2024-01-30T11:04:50;18.70;;;8.05;;
25023;SDS011;13033;50.936;5.334;2024-01-30T11:07:25;12.77;;;7.53;;
25023;SDS011;13033;50.936;5.334;2024-01-30T11:12:23;17.13;;;7.97;;
25023;SDS011;13033;50.936;5.334;2024-01-30T11:15:01;18.15;;;7.60;;
25023;SDS011;13033;50.936;5.334;2024-01-30T11:17:28;16.42;;;8.38;;
25023;SDS011;13033;50.936;5.334;2024-01-30T11:20:04;13.50;;;8.13;;
25023;SDS011;13033;50.936;5.334;2024-01-30T11:22:30;15.77;;;7.90;;
25023;SDS011;13033;50.936;5.334;2024-01-30T11:24:56;17.75;;;8.13;;
25023;SDS011;13033;50.936;5.334;2024-01-30T11:27:22;17.05;;;7.90;;
25023;SDS011;13033;50.936;5.334;2024-01-30T11:29:49;16.05;;;8.30;;
25023;SDS011;13033;50.936;5.334;2024-01-30T11:32:21;17.75;;;8.32;;
25023;SDS011;13033;50.936;5.334;2024-01-30T11:34:50;20.83;;;8.68;;
25023;SDS011;13033;50.936;5.334;2024-01-30T11:37:16;17.80;;;8.32;;
25023;SDS011;13033;50.936;5.334;2024-01-30T11:39:46;16.05;;;8.25;;
25023;SDS011;13033;50.936;5.334;2024-01-30T11:42:13;17.27;;;8.82;;
25023;SDS011;13033;50.936;5.334;2024-01-30T11:44:39;18.60;;;8.93;;
25023;SDS011;13033;50.936;5.334;2024-01-30T11:47:05;17.63;;;9.35;;
25023;SDS011;13033;50.936;5.334;2024-01-30T11:49:31;17.88;;;8.68;;
25023;SDS011;13033;50.936;5.334;2024-01-30T11:51:57;15.52;;;8.70;;
25023;SDS011;13033;50.936;5.334;2024-01-30T11:54:23;21.67;;;8.63;;
25023;SDS011;13033;50.936;5.334;2024-01-30T11:56:48;14.45;;;8.43;;
25023;SDS011;13033;50.936;5.334;2024-01-30T11:59:14;17.52;;;9.05;;
25023;SDS011;13033;50.936;5.334;2024-01-30T12:01:40;17.92;;;9.02;;
25023;SDS011;13033;50.936;5.334;2024-01-30T12:04:06;17.23;;;9.43;;
25023;SDS011;13033;50.936;5.334;2024-01-30T12:06:34;15.88;;;8.82;;
25023;SDS011;13033;50.936;5.334;2024-01-30T12:09:00;18.23;;;9.32;;
25023;SDS011;13033;50.936;5.334;2024-01-30T12:11:29;15.57;;;9.82;;
25023;SDS011;13033;50.936;5.334;2024-01-30T12:13:55;15.55;;;9.35;;
25023;SDS011;13033;50.936;5.334;2024-01-30T12:16:21;17.13;;;9.93;;
25023;SDS011;13033;50.936;5.334;2024-01-30T12:18:48;16.88;;;8.63;;
25023;SDS011;13033;50.936;5.334;2024-01-30T12:21:17;18.27;;;9.70;;
25023;SDS011;13033;50.936;5.334;2024-01-30T12:23:43;17.80;;;9.73;;
25023;SDS011;13033;50.936;5.334;2024-01-30T12:26:10;17.30;;;9.68;;
25023;SDS011;13033;50.936;5.334;2024-01-30T12:28:36;16.40;;;9.48;;
25023;SDS011;13033;50.936;5.334;2024-01-30T12:31:03;18.05;;;9.98;;
25023;SDS011;13033;50.936;5.334;2024-01-30T12:33:29;17.05;;;10.10;;
25023;SDS011;13033;50.936;5.334;2024-01-30T12:35:56;21.27;;;10.40;;
25023;SDS011;13033;50.936;5.334;2024-01-30T12:38:26;16.30;;;9.52;;
25023;SDS011;13033;50.936;5.334;2024-01-30T12:40:55;21.35;;;9.82;;
25023;SDS011;13033;50.936;5.334;2024-01-30T12:43:21;13.35;;;8.65;;
25023;SDS011;13033;50.936;5.334;2024-01-30T12:45:48;16.88;;;9.23;;
25023;SDS011;13033;50.936;5.334;2024-01-30T12:48:15;20.60;;;9.60;;
25023;SDS011;13033;50.936;5.334;2024-01-30T12:50:41;14.18;;;6.57;;
25023;SDS011;13033;50.936;5.334;2024-01-30T12:53:08;13.32;;;6.47;;
25023;SDS011;13033;50.936;5.334;2024-01-30T12:55:34;14.82;;;6.35;;
25023;SDS011;13033;50.936;5.334;2024-01-30T12:58:00;12.07;;;6.10;;
25023;SDS011;13033;50.936;5.334;2024-01-30T13:00:26;10.73;;;6.05;;
25023;SDS011;13033;50.936;5.334;2024-01-30T13:02:51;11.43;;;6.40;;
25023;SDS011;13033;50.936;5.334;2024-01-30T13:05:17;8.68;;;5.00;;
25023;SDS011;13033;50.936;5.334;2024-01-30T13:07:43;8.18;;;5.03;;
25023;SDS011;13033;50.936;5.334;2024-01-30T13:10:09;5.18;;;3.13;;
25023;SDS011;13033;50.936;5.334;2024-01-30T13:12:35;7.05;;;3.45;;
25023;SDS011;13033;50.936;5.334;2024-01-30T13:15:01;7.35;;;4.18;;
25023;SDS011;13033;50.936;5.334;2024-01-30T13:17:28;6.32;;;2.58;;
25023;SDS011;13033;50.936;5.334;2024-01-30T13:19:54;6.30;;;3.17;;
25023;SDS011;13033;50.936;5.334;2024-01-30T13:22:20;8.15;;;3.00;;
25023;SDS011;13033;50.936;5.334;2024-01-30T13:24:49;8.70;;;3.25;;
25023;SDS011;13033;50.936;5.334;2024-01-30T13:27:15;5.78;;;2.90;;
25023;SDS011;13033;50.936;5.334;2024-01-30T13:29:40;5.25;;;2.70;;
25023;SDS011;13033;50.936;5.334;2024-01-30T13:32:06;4.32;;;2.10;;
25023;SDS011;13033;50.936;5.334;2024-01-30T13:34:32;8.18;;;2.53;;
25023;SDS011;13033;50.936;5.334;2024-01-30T13:36:59;5.68;;;2.17;;
25023;SDS011;13033;50.936;5.334;2024-01-30T13:39:25;3.15;;;1.42;;
25023;SDS011;13033;50.936;5.334;2024-01-30T13:41:50;5.35;;;1.50;;
25023;SDS011;13033;50.936;5.334;2024-01-30T13:44:16;4.65;;;1.60;;
25023;SDS011;13033;50.936;5.334;2024-01-30T13:46:43;8.18;;;2.03;;
25023;SDS011;13033;50.936;5.334;2024-01-30T13:49:09;5.93;;;1.77;;
25023;SDS011;13033;50.936;5.334;2024-01-30T13:51:34;6.53;;;1.27;;
25023;SDS011;13033;50.936;5.334;2024-01-30T13:54:00;2.83;;;1.50;;
25023;SDS011;13033;50.936;5.334;2024-01-30T13:56:26;2.20;;;1.50;;
25023;SDS011;13033;50.936;5.334;2024-01-30T13:58:52;3.45;;;1.48;;
25023;SDS011;13033;50.936;5.334;2024-01-30T14:01:18;4.55;;;1.45;;
25023;SDS011;13033;50.936;5.334;2024-01-30T14:03:44;3.60;;;1.20;;
25023;SDS011;13033;50.936;5.334;2024-01-30T14:06:10;5.30;;;1.17;;
25023;SDS011;13033;50.936;5.334;2024-01-30T14:08:36;2.50;;;1.25;;
25023;SDS011;13033;50.936;5.334;2024-01-30T14:11:02;3.05;;;1.20;;
25023;SDS011;13033;50.936;5.334;2024-01-30T14:13:28;3.20;;;1.25;;
25023;SDS011;13033;50.936;5.334;2024-01-30T14:15:56;3.40;;;1.30;;
25023;SDS011;13033;50.936;5.334;2024-01-30T14:18:23;2.70;;;1.35;;
25023;SDS011;13033;50.936;5.334;2024-01-30T14:20:50;4.55;;;1.35;;
25023;SDS011;13033;50.936;5.334;2024-01-30T14:23:17;3.00;;;1.20;;
25023;SDS011;13033;50.936;5.334;2024-01-30T14:25:42;1.40;;;1.00;;
25023;SDS011;13033;50.936;5.334;2024-01-30T14:28:08;3.97;;;1.08;;
25023;SDS011;13033;50.936;5.334;2024-01-30T14:30:34;4.03;;;1.60;;
25023;SDS011;13033;50.936;5.334;2024-01-30T14:33:00;2.95;;;1.50;;
25023;SDS011;13033;50.936;5.334;2024-01-30T14:35:27;4.28;;;1.88;;
25023;SDS011;13033;50.936;5.334;2024-01-30T14:37:52;9.55;;;3.78;;
25023;SDS011;13033;50.936;5.334;2024-01-30T14:40:18;4.97;;;2.55;;
25023;SDS011;13033;50.936;5.334;2024-01-30T14:42:44;5.43;;;2.13;;
25023;SDS011;13033;50.936;5.334;2024-01-30T14:45:10;5.88;;;1.52;;